sensor_id;sensor_type;location;lat;lon;timestamp;pressure;altitude;pressure_sealevel;temperature;humidity
36062;BME280;22123;52.412;20.970;2024-03-02T00:00:00;100439.63;;;6.34;100.00
36062;BME280;22123;52.412;20.970;2024-03-02T00:02:26;100427.31;;;6.23;100.00
36062;BME280;22123;52.412;20.970;2024-03-02T00:04:51;100412.28;;;6.13;100.00
36062;BME280;22123;52.412;20.970;2024-03-02T00:07:17;100392.03;;;6.00;100.00
36062;BME280;22123;52.412;20.970;2024-03-02T00:09:44;100451.72;;;6.38;100.00
36062;BME280;22123;52.412;20.970;2024-03-02T00:12:15;100414.25;;;6.11;100.00
36062;BME280;22123;52.412;20.970;2024-03-02T00:14:41;100433.34;;;6.25;100.00
36062;BME280;22123;52.412;20.970;2024-03-02T00:17:17;100404.59;;;6.00;100.00
36062;BME280;22123;52.412;20.970;2024-03-02T00:19:46;100394.88;;;5.99;100.00
36062;BME280;22123;52.412;20.970;2024-03-02T00:22:12;100398.94;;;6.03;100.00
36062;BME280;22123;52.412;20.970;2024-03-02T00:24:39;100443.50;;;6.22;100.00
36062;BME280;22123;52.412;20.970;2024-03-02T00:27:06;100383.47;;;5.87;100.00
36062;BME280;22123;52.412;20.970;2024-03-02T00:29:34;100419.06;;;6.07;100.00
36062;BME280;22123;52.412;20.970;2024-03-02T00:32:01;100429.88;;;6.05;100.00
36062;BME280;22123;52.412;20.970;2024-03-02T00:34:27;100377.44;;;5.75;100.00
36062;BME280;22123;52.412;20.970;2024-03-02T00:36:53;100414.81;;;5.95;100.00
36062;BME280;22123;52.412;20.970;2024-03-02T00:39:19;100409.63;;;5.93;100.00
36062;BME280;22123;52.412;20.970;2024-03-02T00:41:45;100393.44;;;5.85;100.00
36062;BME280;22123;52.412;20.970;2024-03-02T00:44:12;100437.75;;;6.07;100.00
36062;BME280;22123;52.412;20.970;2024-03-02T00:46:40;100433.25;;;6.07;100.00
36062;BME280;22123;52.412;20.970;2024-03-02T00:49:18;100437.47;;;6.00;100.00
36062;BME280;22123;52.412;20.970;2024-03-02T00:51:47;100401.50;;;5.75;100.00
36062;BME280;22123;52.412;20.970;2024-03-02T00:54:13;100408.50;;;5.76;100.00
36062;BME280;22123;52.412;20.970;2024-03-02T00:56:41;100380.97;;;5.56;100.00
36062;BME280;22123;52.412;20.970;2024-03-02T00:59:07;100441.13;;;5.89;100.00
36062;BME280;22123;52.412;20.970;2024-03-02T01:01:33;100438.47;;;5.80;100.00
36062;BME280;22123;52.412;20.970;2024-03-02T01:03:59;100386.88;;;5.50;100.00
36062;BME280;22123;52.412;20.970;2024-03-02T01:06:25;100446.19;;;5.83;100.00
36062;BME280;22123;52.412;20.970;2024-03-02T01:08:51;100404.75;;;5.59;100.00
36062;BME280;22123;52.412;20.970;2024-03-02T01:11:18;100400.38;;;5.58;100.00
36062;BME280;22123;52.412;20.970;2024-03-02T01:13:44;100399.25;;;5.51;100.00
36062;BME280;22123;52.412;20.970;2024-03-02T01:16:10;100438.19;;;5.73;100.00
36062;BME280;22123;52.412;20.970;2024-03-02T01:18:36;100393.63;;;5.44;100.00
36062;BME280;22123;52.412;20.970;2024-03-02T01:21:02;100410.47;;;5.54;100.00
36062;BME280;22123;52.412;20.970;2024-03-02T01:23:28;100405.03;;;5.46;100.00
36062;BME280;22123;52.412;20.970;2024-03-02T01:25:54;100414.41;;;5.60;100.00
36062;BME280;22123;52.412;20.970;2024-03-02T01:28:19;100373.53;;;5.30;100.00
36062;BME280;22123;52.412;20.970;2024-03-02T01:30:46;100378.75;;;5.32;100.00
36062;BME280;22123;52.412;20.970;2024-03-02T01:33:12;100423.84;;;5.54;100.00
36062;BME280;22123;52.412;20.970;2024-03-02T01:35:37;100356.25;;;5.15;100.00
36062;BME280;22123;52.412;20.970;2024-03-02T01:38:04;100400.50;;;5.37;100.00
36062;BME280;22123;52.412;20.970;2024-03-02T01:40:30;100393.22;;;5.29;100.00
36062;BME280;22123;52.412;20.970;2024-03-02T01:42:56;100368.34;;;5.19;100.00
36062;BME280;22123;52.412;20.970;2024-03-02T01:45:21;100373.09;;;5.25;100.00
36062;BME280;22123;52.412;20.970;2024-03-02T01:47:47;100377.91;;;5.21;100.00
36062;BME280;22123;52.412;20.970;2024-03-02T01:50:14;100399.53;;;5.38;100.00
36062;BME280;22123;52.412;20.970;2024-03-02T01:52:39;100406.56;;;5.39;100.00
36062;BME280;22123;52.412;20.970;2024-03-02T01:55:06;100388.97;;;5.27;100.00
36062;BME280;22123;52.412;20.970;2024-03-02T01:57:32;100371.44;;;5.14;100.00
36062;BME280;22123;52.412;20.970;2024-03-02T01:59:58;100360.75;;;5.04;100.00
36062;BME280;22123;52.412;20.970;2024-03-02T02:02:25;100407.09;;;5.33;100.00
36062;BME280;22123;52.412;20.970;2024-03-02T02:04:50;100366.34;;;5.11;100.00
36062;BME280;22123;52.412;20.970;2024-03-02T02:07:16;100375.50;;;5.09;100.00
36062;BME280;22123;52.412;20.970;2024-03-02T02:09:42;100361.84;;;5.02;100.00
36062;BME280;22123;52.412;20.970;2024-03-02T02:12:11;100367.91;;;5.04;100.00
36062;BME280;22123;52.412;20.970;2024-03-02T02:14:37;100360.88;;;4.93;100.00
36062;BME280;22123;52.412;20.970;2024-03-02T02:17:03;100361.00;;;4.92;100.00
36062;BME280;22123;52.412;20.970;2024-03-02T02:19:29;100320.66;;;4.65;100.00
36062;BME280;22123;52.412;20.970;2024-03-02T02:21:55;100362.97;;;4.90;100.00
36062;BME280;22123;52.412;20.970;2024-03-02T02:24:21;100341.91;;;4.77;100.00
36062;BME280;22123;52.412;20.970;2024-03-02T02:26:47;100355.94;;;4.88;100.00
36062;BME280;22123;52.412;20.970;2024-03-02T02:29:12;100360.84;;;4.83;100.00
36062;BME280;22123;52.412;20.970;2024-03-02T02:31:39;100402.03;;;5.10;100.00
36062;BME280;22123;52.412;20.970;2024-03-02T02:34:06;100354.09;;;4.79;100.00
36062;BME280;22123;52.412;20.970;2024-03-02T02:36:32;100387.84;;;5.00;100.00
36062;BME280;22123;52.412;20.970;2024-03-02T02:39:01;100331.75;;;4.61;100.00
36062;BME280;22123;52.412;20.970;2024-03-02T02:41:28;100391.63;;;4.97;100.00
36062;BME280;22123;52.412;20.970;2024-03-02T02:43:54;100363.38;;;4.75;100.00
36062;BME280;22123;52.412;20.970;2024-03-02T02:46:19;100378.53;;;4.84;100.00
36062;BME280;22123;52.412;20.970;2024-03-02T02:48:45;100379.97;;;4.88;100.00
36062;BME280;22123;52.412;20.970;2024-03-02T02:51:11;100352.53;;;4.67;100.00
36062;BME280;22123;52.412;20.970;2024-03-02T02:53:37;100344.94;;;4.62;100.00
36062;BME280;22123;52.412;20.970;2024-03-02T02:56:03;100331.59;;;4.52;100.00
36062;BME280;22123;52.412;20.970;2024-03-02T02:58:29;100365.44;;;4.72;100.00
36062;BME280;22123;52.412;20.970;2024-03-02T03:00:55;100376.72;;;4.75;100.00
36062;BME280;22123;52.412;20.970;2024-03-02T03:03:21;100357.56;;;4.60;100.00
36062;BME280;22123;52.412;20.970;2024-03-02T03:05:47;100387.09;;;4.78;100.00
36062;BME280;22123;52.412;20.970;2024-03-02T03:08:13;100352.78;;;4.54;100.00
36062;BME280;22123;52.412;20.970;2024-03-02T03:10:38;100351.63;;;4.47;100.00
36062;BME280;22123;52.412;20.970;2024-03-02T03:13:04;100352.03;;;4.42;100.00
36062;BME280;22123;52.412;20.970;2024-03-02T03:15:30;100344.31;;;4.39;100.00
36062;BME280;22123;52.412;20.970;2024-03-02T03:17:56;100349.78;;;4.38;100.00
36062;BME280;22123;52.412;20.970;2024-03-02T03:20:22;100358.63;;;4.38;100.00
36062;BME280;22123;52.412;20.970;2024-03-02T03:22:48;100349.88;;;4.26;100.00
36062;BME280;22123;52.412;20.970;2024-03-02T03:25:14;100380.69;;;4.50;100.00
36062;BME280;22123;52.412;20.970;2024-03-02T03:27:40;100343.13;;;4.22;100.00
36062;BME280;22123;52.412;20.970;2024-03-02T03:30:06;100345.19;;;4.18;100.00
36062;BME280;22123;52.412;20.970;2024-03-02T03:32:32;100360.69;;;4.25;100.00
36062;BME280;22123;52.412;20.970;2024-03-02T03:34:58;100362.47;;;4.24;100.00
36062;BME280;22123;52.412;20.970;2024-03-02T03:37:24;100368.66;;;4.25;100.00
36062;BME280;22123;52.412;20.970;2024-03-02T03:39:49;100376.66;;;4.25;100.00
36062;BME280;22123;52.412;20.970;2024-03-02T03:42:15;100344.16;;;4.00;100.00
36062;BME280;22123;52.412;20.970;2024-03-02T03:44:41;100304.75;;;3.73;100.00
36062;BME280;22123;52.412;20.970;2024-03-02T03:47:07;100353.94;;;3.99;100.00
36062;BME280;22123;52.412;20.970;2024-03-02T03:49:33;100375.59;;;4.06;100.00
36062;BME280;22123;52.412;20.970;2024-03-02T03:51:59;100339.16;;;3.86;100.00
36062;BME280;22123;52.412;20.970;2024-03-02T03:54:25;100272.66;;;3.43;100.00
36062;BME280;22123;52.412;20.970;2024-03-02T03:56:50;100353.31;;;3.86;100.00
36062;BME280;22123;52.412;20.970;2024-03-02T03:59:16;100369.38;;;3.96;100.00
36062;BME280;22123;52.412;20.970;2024-03-02T04:01:42;100337.16;;;3.78;100.00
36062;BME280;22123;52.412;20.970;2024-03-02T04:04:08;100372.47;;;4.01;100.00
36062;BME280;22123;52.412;20.970;2024-03-02T04:06:34;100298.34;;;3.54;100.00
36062;BME280;22123;52.412;20.970;2024-03-02T04:09:00;100328.72;;;3.73;100.00
36062;BME280;22123;52.412;20.970;2024-03-02T04:11:26;100342.59;;;3.76;100.00
36062;BME280;22123;52.412;20.970;2024-03-02T04:13:52;100363.97;;;3.86;100.00
36062;BME280;22123;52.412;20.970;2024-03-02T04:16:17;100284.53;;;3.39;100.00
36062;BME280;22123;52.412;20.970;2024-03-02T04:18:43;100326.00;;;3.63;100.00
36062;BME280;22123;52.412;20.970;2024-03-02T04:21:09;100345.38;;;3.65;100.00
36062;BME280;22123;52.412;20.970;2024-03-02T04:23:35;100339.56;;;3.60;100.00
36062;BME280;22123;52.412;20.970;2024-03-02T04:26:01;100347.28;;;3.63;100.00
36062;BME280;22123;52.412;20.970;2024-03-02T04:28:27;100395.53;;;3.91;100.00
36062;BME280;22123;52.412;20.970;2024-03-02T04:30:53;100345.59;;;3.62;100.00
36062;BME280;22123;52.412;20.970;2024-03-02T04:33:18;100344.75;;;3.61;100.00
36062;BME280;22123;52.412;20.970;2024-03-02T04:35:44;100339.44;;;3.61;100.00
36062;BME280;22123;52.412;20.970;2024-03-02T04:38:10;100341.53;;;3.58;100.00
36062;BME280;22123;52.412;20.970;2024-03-02T04:40:36;100347.03;;;3.66;100.00
36062;BME280;22123;52.412;20.970;2024-03-02T04:43:02;100358.16;;;3.71;100.00
36062;BME280;22123;52.412;20.970;2024-03-02T04:45:28;100374.50;;;3.88;100.00
36062;BME280;22123;52.412;20.970;2024-03-02T04:47:54;100356.72;;;3.88;100.00
36062;BME280;22123;52.412;20.970;2024-03-02T04:50:20;100382.28;;;4.00;100.00
36062;BME280;22123;52.412;20.970;2024-03-02T04:52:46;100365.75;;;3.97;100.00
36062;BME280;22123;52.412;20.970;2024-03-02T04:55:11;100381.06;;;4.05;100.00
36062;BME280;22123;52.412;20.970;2024-03-02T04:57:37;100375.00;;;4.03;100.00
36062;BME280;22123;52.412;20.970;2024-03-02T05:00:04;100340.94;;;3.75;100.00
36062;BME280;22123;52.412;20.970;2024-03-02T05:02:30;100318.75;;;3.65;100.00
36062;BME280;22123;52.412;20.970;2024-03-02T05:04:56;100379.06;;;3.97;100.00
36062;BME280;22123;52.412;20.970;2024-03-02T05:07:21;100342.16;;;3.71;100.00
36062;BME280;22123;52.412;20.970;2024-03-02T05:09:47;100358.31;;;3.79;100.00
36062;BME280;22123;52.412;20.970;2024-03-02T05:12:13;100366.91;;;3.83;100.00
36062;BME280;22123;52.412;20.970;2024-03-02T05:14:39;100331.31;;;3.63;100.00
36062;BME280;22123;52.412;20.970;2024-03-02T05:17:05;100341.56;;;3.68;100.00
36062;BME280;22123;52.412;20.970;2024-03-02T05:19:31;100360.41;;;3.76;100.00
36062;BME280;22123;52.412;20.970;2024-03-02T05:21:57;100390.34;;;3.89;100.00
36062;BME280;22123;52.412;20.970;2024-03-02T05:24:23;100363.59;;;3.70;100.00
36062;BME280;22123;52.412;20.970;2024-03-02T05:26:48;100384.13;;;3.79;100.00
36062;BME280;22123;52.412;20.970;2024-03-02T05:29:14;100412.13;;;3.94;100.00
36062;BME280;22123;52.412;20.970;2024-03-02T05:31:40;100380.28;;;3.72;100.00
36062;BME280;22123;52.412;20.970;2024-03-02T05:34:06;100392.94;;;3.79;100.00
36062;BME280;22123;52.412;20.970;2024-03-02T05:36:32;100395.38;;;3.82;100.00
36062;BME280;22123;52.412;20.970;2024-03-02T05:38:58;100400.22;;;3.77;100.00
36062;BME280;22123;52.412;20.970;2024-03-02T05:41:24;100402.06;;;3.77;100.00
36062;BME280;22123;52.412;20.970;2024-03-02T05:43:49;100377.19;;;3.67;100.00
36062;BME280;22123;52.412;20.970;2024-03-02T05:46:15;100428.53;;;3.99;100.00
36062;BME280;22123;52.412;20.970;2024-03-02T05:48:41;100391.41;;;3.77;100.00
36062;BME280;22123;52.412;20.970;2024-03-02T05:51:07;100419.84;;;3.97;100.00
36062;BME280;22123;52.412;20.970;2024-03-02T05:53:33;100444.03;;;4.06;100.00
36062;BME280;22123;52.412;20.970;2024-03-02T05:55:59;100403.41;;;3.92;100.00
36062;BME280;22123;52.412;20.970;2024-03-02T05:58:25;100387.38;;;3.82;100.00
36062;BME280;22123;52.412;20.970;2024-03-02T06:00:51;100398.94;;;3.93;100.00
36062;BME280;22123;52.412;20.970;2024-03-02T06:03:17;100388.53;;;3.90;100.00
36062;BME280;22123;52.412;20.970;2024-03-02T06:05:43;100379.97;;;3.86;100.00
36062;BME280;22123;52.412;20.970;2024-03-02T06:08:08;100439.06;;;4.22;100.00
36062;BME280;22123;52.412;20.970;2024-03-02T06:10:34;100375.47;;;3.87;100.00
36062;BME280;22123;52.412;20.970;2024-03-02T06:13:00;100442.06;;;4.29;100.00
36062;BME280;22123;52.412;20.970;2024-03-02T06:15:26;100396.31;;;4.03;100.00
36062;BME280;22123;52.412;20.970;2024-03-02T06:17:52;100408.13;;;4.10;100.00
36062;BME280;22123;52.412;20.970;2024-03-02T06:20:18;100411.13;;;4.16;100.00
36062;BME280;22123;52.412;20.970;2024-03-02T06:22:44;100439.28;;;4.40;100.00
36062;BME280;22123;52.412;20.970;2024-03-02T06:25:09;100415.63;;;4.26;100.00
36062;BME280;22123;52.412;20.970;2024-03-02T06:27:35;100429.56;;;4.29;100.00
36062;BME280;22123;52.412;20.970;2024-03-02T06:30:01;100413.84;;;4.26;100.00
36062;BME280;22123;52.412;20.970;2024-03-02T06:32:27;100434.81;;;4.41;100.00
36062;BME280;22123;52.412;20.970;2024-03-02T06:34:53;100387.84;;;4.18;100.00
36062;BME280;22123;52.412;20.970;2024-03-02T06:37:19;100442.06;;;4.60;100.00
36062;BME280;22123;52.412;20.970;2024-03-02T06:39:45;100440.81;;;4.64;100.00
36062;BME280;22123;52.412;20.970;2024-03-02T06:42:11;100405.75;;;4.38;100.00
36062;BME280;22123;52.412;20.970;2024-03-02T06:44:36;100409.59;;;4.45;100.00
36062;BME280;22123;52.412;20.970;2024-03-02T06:47:02;100386.50;;;4.34;100.00
36062;BME280;22123;52.412;20.970;2024-03-02T06:49:28;100399.06;;;4.43;100.00
36062;BME280;22123;52.412;20.970;2024-03-02T06:51:54;100427.59;;;4.62;100.00
36062;BME280;22123;52.412;20.970;2024-03-02T06:54:20;100440.25;;;4.70;100.00
36062;BME280;22123;52.412;20.970;2024-03-02T06:56:46;100454.19;;;4.83;100.00
36062;BME280;22123;52.412;20.970;2024-03-02T06:59:12;100429.78;;;4.78;100.00
36062;BME280;22123;52.412;20.970;2024-03-02T07:01:38;100427.66;;;4.82;100.00
36062;BME280;22123;52.412;20.970;2024-03-02T07:04:03;100452.28;;;5.05;100.00
36062;BME280;22123;52.412;20.970;2024-03-02T07:06:29;100453.28;;;5.14;100.00
36062;BME280;22123;52.412;20.970;2024-03-02T07:08:55;100437.69;;;5.09;100.00
36062;BME280;22123;52.412;20.970;2024-03-02T07:11:21;100395.22;;;4.86;100.00
36062;BME280;22123;52.412;20.970;2024-03-02T07:13:47;100436.19;;;5.26;100.00
36062;BME280;22123;52.412;20.970;2024-03-02T07:16:13;100423.69;;;5.27;100.00
36062;BME280;22123;52.412;20.970;2024-03-02T07:18:39;100404.84;;;5.18;100.00
36062;BME280;22123;52.412;20.970;2024-03-02T07:21:05;100460.81;;;5.59;100.00
36062;BME280;22123;52.412;20.970;2024-03-02T07:23:31;100420.88;;;5.38;100.00
36062;BME280;22123;52.412;20.970;2024-03-02T07:25:56;100423.44;;;5.49;100.00
36062;BME280;22123;52.412;20.970;2024-03-02T07:28:23;100421.88;;;5.56;100.00
36062;BME280;22123;52.412;20.970;2024-03-02T07:31:02;100454.91;;;5.85;100.00
36062;BME280;22123;52.412;20.970;2024-03-02T07:33:28;100459.56;;;5.92;100.00
36062;BME280;22123;52.412;20.970;2024-03-02T07:35:54;100448.84;;;5.92;100.00
36062;BME280;22123;52.412;20.970;2024-03-02T07:38:20;100436.63;;;5.90;100.00
36062;BME280;22123;52.412;20.970;2024-03-02T07:40:47;100418.34;;;5.75;100.00
36062;BME280;22123;52.412;20.970;2024-03-02T07:43:13;100434.63;;;5.92;100.00
36062;BME280;22123;52.412;20.970;2024-03-02T07:45:40;100416.94;;;5.81;100.00
36062;BME280;22123;52.412;20.970;2024-03-02T07:48:06;100427.78;;;5.89;100.00
36062;BME280;22123;52.412;20.970;2024-03-02T07:50:32;100443.94;;;5.98;100.00
36062;BME280;22123;52.412;20.970;2024-03-02T07:52:58;100432.69;;;5.94;100.00
36062;BME280;22123;52.412;20.970;2024-03-02T07:55:24;100415.09;;;5.91;100.00
36062;BME280;22123;52.412;20.970;2024-03-02T07:57:50;100410.75;;;6.00;100.00
36062;BME280;22123;52.412;20.970;2024-03-02T08:00:16;100466.66;;;6.41;100.00
36062;BME280;22123;52.412;20.970;2024-03-02T08:02:41;100463.25;;;6.49;100.00
36062;BME280;22123;52.412;20.970;2024-03-02T08:05:08;100475.03;;;6.56;100.00
36062;BME280;22123;52.412;20.970;2024-03-02T08:07:34;100420.53;;;6.29;100.00
36062;BME280;22123;52.412;20.970;2024-03-02T08:10:00;100440.34;;;6.46;100.00
36062;BME280;22123;52.412;20.970;2024-03-02T08:12:26;100478.13;;;6.71;100.00
36062;BME280;22123;52.412;20.970;2024-03-02T08:14:52;100461.78;;;6.64;100.00
36062;BME280;22123;52.412;20.970;2024-03-02T08:17:18;100472.31;;;6.75;100.00
36062;BME280;22123;52.412;20.970;2024-03-02T08:19:44;100432.69;;;6.51;100.00
36062;BME280;22123;52.412;20.970;2024-03-02T08:22:10;100455.16;;;6.68;100.00
36062;BME280;22123;52.412;20.970;2024-03-02T08:24:36;100477.91;;;6.82;100.00
36062;BME280;22123;52.412;20.970;2024-03-02T08:27:02;100482.03;;;6.76;100.00
36062;BME280;22123;52.412;20.970;2024-03-02T08:29:28;100475.53;;;6.79;100.00
36062;BME280;22123;52.412;20.970;2024-03-02T08:31:54;100498.41;;;7.01;100.00
36062;BME280;22123;52.412;20.970;2024-03-02T08:34:20;100490.22;;;7.03;100.00
36062;BME280;22123;52.412;20.970;2024-03-02T08:36:46;100479.97;;;6.98;100.00
36062;BME280;22123;52.412;20.970;2024-03-02T08:39:12;100464.09;;;6.87;100.00
36062;BME280;22123;52.412;20.970;2024-03-02T08:41:38;100490.59;;;7.08;100.00
36062;BME280;22123;52.412;20.970;2024-03-02T08:44:04;100414.78;;;6.61;100.00
36062;BME280;22123;52.412;20.970;2024-03-02T08:46:30;100461.50;;;6.95;100.00
36062;BME280;22123;52.412;20.970;2024-03-02T08:48:56;100436.09;;;6.81;100.00
36062;BME280;22123;52.412;20.970;2024-03-02T08:51:22;100466.59;;;6.98;100.00
36062;BME280;22123;52.412;20.970;2024-03-02T08:53:47;100457.06;;;6.86;100.00
36062;BME280;22123;52.412;20.970;2024-03-02T08:56:13;100496.66;;;7.10;100.00
36062;BME280;22123;52.412;20.970;2024-03-02T08:58:39;100446.50;;;6.84;100.00
36062;BME280;22123;52.412;20.970;2024-03-02T09:01:05;100457.47;;;6.91;100.00
36062;BME280;22123;52.412;20.970;2024-03-02T09:03:31;100462.22;;;6.97;100.00
36062;BME280;22123;52.412;20.970;2024-03-02T09:05:57;100468.25;;;6.99;100.00
36062;BME280;22123;52.412;20.970;2024-03-02T09:08:23;100442.13;;;6.83;100.00
36062;BME280;22123;52.412;20.970;2024-03-02T09:10:49;100447.88;;;6.88;100.00
36062;BME280;22123;52.412;20.970;2024-03-02T09:13:15;100440.88;;;6.77;100.00
36062;BME280;22123;52.412;20.970;2024-03-02T09:15:41;100473.56;;;7.09;100.00
36062;BME280;22123;52.412;20.970;2024-03-02T09:18:07;100510.81;;;7.30;100.00
36062;BME280;22123;52.412;20.970;2024-03-02T09:20:33;100467.44;;;7.17;100.00
36062;BME280;22123;52.412;20.970;2024-03-02T09:22:59;100495.88;;;7.45;100.00
36062;BME280;22123;52.412;20.970;2024-03-02T09:25:24;100447.09;;;7.24;100.00
36062;BME280;22123;52.412;20.970;2024-03-02T09:27:50;100437.31;;;7.32;100.00
36062;BME280;22123;52.412;20.970;2024-03-02T09:30:16;100454.81;;;7.55;100.00
36062;BME280;22123;52.412;20.970;2024-03-02T09:32:42;100434.88;;;7.57;100.00
36062;BME280;22123;52.412;20.970;2024-03-02T09:35:08;100461.22;;;7.80;100.00
36062;BME280;22123;52.412;20.970;2024-03-02T09:37:35;100464.13;;;7.87;100.00
36062;BME280;22123;52.412;20.970;2024-03-02T09:40:01;100440.56;;;7.72;100.00
36062;BME280;22123;52.412;20.970;2024-03-02T09:42:27;100444.16;;;7.81;100.00
36062;BME280;22123;52.412;20.970;2024-03-02T09:44:53;100458.31;;;7.91;100.00
36062;BME280;22123;52.412;20.970;2024-03-02T09:47:19;100459.69;;;7.95;100.00
36062;BME280;22123;52.412;20.970;2024-03-02T09:49:45;100483.53;;;8.25;100.00
36062;BME280;22123;52.412;20.970;2024-03-02T09:52:12;100488.81;;;8.34;100.00
36062;BME280;22123;52.412;20.970;2024-03-02T09:54:38;100466.59;;;8.24;100.00
36062;BME280;22123;52.412;20.970;2024-03-02T09:57:04;100472.72;;;8.34;100.00
36062;BME280;22123;52.412;20.970;2024-03-02T09:59:30;100469.88;;;8.36;100.00
36062;BME280;22123;52.412;20.970;2024-03-02T10:02:00;100494.19;;;8.43;100.00
36062;BME280;22123;52.412;20.970;2024-03-02T10:04:27;100456.97;;;8.13;100.00
36062;BME280;22123;52.412;20.970;2024-03-02T10:07:16;100489.16;;;8.40;100.00
36062;BME280;22123;52.412;20.970;2024-03-02T10:09:46;100491.09;;;8.47;100.00
36062;BME280;22123;52.412;20.970;2024-03-02T10:12:14;100444.50;;;8.30;100.00
36062;BME280;22123;52.412;20.970;2024-03-02T10:14:40;100456.72;;;8.51;100.00
36062;BME280;22123;52.412;20.970;2024-03-02T10:17:10;100486.06;;;8.79;100.00
36062;BME280;22123;52.412;20.970;2024-03-02T10:19:36;100427.91;;;8.53;100.00
36062;BME280;22123;52.412;20.970;2024-03-02T10:22:04;100359.13;;;8.17;100.00
36062;BME280;22123;52.412;20.970;2024-03-02T10:24:40;100440.97;;;8.82;100.00
36062;BME280;22123;52.412;20.970;2024-03-02T10:27:08;100427.91;;;8.96;100.00
36062;BME280;22123;52.412;20.970;2024-03-02T10:29:37;100472.53;;;9.39;100.00
36062;BME280;22123;52.412;20.970;2024-03-02T10:32:04;100462.00;;;9.54;100.00
36062;BME280;22123;52.412;20.970;2024-03-02T10:34:30;100427.19;;;9.45;100.00
36062;BME280;22123;52.412;20.970;2024-03-02T10:36:56;100421.31;;;9.49;100.00
36062;BME280;22123;52.412;20.970;2024-03-02T10:39:24;100413.59;;;9.63;100.00
36062;BME280;22123;52.412;20.970;2024-03-02T10:41:52;100460.16;;;10.04;100.00
36062;BME280;22123;52.412;20.970;2024-03-02T10:44:18;100466.06;;;10.08;100.00
36062;BME280;22123;52.412;20.970;2024-03-02T10:46:45;100411.94;;;9.78;100.00
36062;BME280;22123;52.412;20.970;2024-03-02T10:49:13;100423.19;;;9.82;100.00
36062;BME280;22123;52.412;20.970;2024-03-02T10:51:39;100408.41;;;9.69;100.00
36062;BME280;22123;52.412;20.970;2024-03-02T10:54:05;100442.00;;;9.90;100.00
36062;BME280;22123;52.412;20.970;2024-03-02T10:56:32;100430.91;;;10.01;100.00
36062;BME280;22123;52.412;20.970;2024-03-02T10:59:19;100457.78;;;10.26;100.00
36062;BME280;22123;52.412;20.970;2024-03-02T11:01:48;100451.22;;;10.37;100.00
36062;BME280;22123;52.412;20.970;2024-03-02T11:04:18;100440.09;;;10.48;100.00
36062;BME280;22123;52.412;20.970;2024-03-02T11:06:51;100430.03;;;10.50;100.00
36062;BME280;22123;52.412;20.970;2024-03-02T11:09:20;100440.19;;;10.71;100.00
36062;BME280;22123;52.412;20.970;2024-03-02T11:12:02;100440.34;;;10.86;100.00
36062;BME280;22123;52.412;20.970;2024-03-02T11:14:30;100420.66;;;10.77;100.00
36062;BME280;22123;52.412;20.970;2024-03-02T11:16:56;100412.28;;;10.72;100.00
36062;BME280;22123;52.412;20.970;2024-03-02T11:19:23;100424.69;;;10.82;100.00
36062;BME280;22123;52.412;20.970;2024-03-02T11:21:50;100443.50;;;10.90;100.00
36062;BME280;22123;52.412;20.970;2024-03-02T11:26:48;100410.78;;;10.61;100.00
36062;BME280;22123;52.412;20.970;2024-03-02T11:29:54;100441.88;;;10.81;100.00
36062;BME280;22123;52.412;20.970;2024-03-02T11:32:22;100420.91;;;10.59;100.00
36062;BME280;22123;52.412;20.970;2024-03-02T11:34:49;100418.53;;;10.65;100.00
36062;BME280;22123;52.412;20.970;2024-03-02T11:37:16;100387.31;;;10.47;100.00
36062;BME280;22123;52.412;20.970;2024-03-02T11:39:44;100404.28;;;10.56;100.00
36062;BME280;22123;52.412;20.970;2024-03-02T11:42:11;100406.78;;;10.57;100.00
36062;BME280;22123;52.412;20.970;2024-03-02T11:44:38;100440.63;;;10.91;100.00
36062;BME280;22123;52.412;20.970;2024-03-02T11:47:08;100435.22;;;11.00;100.00
36062;BME280;22123;52.412;20.970;2024-03-02T11:49:45;100435.16;;;11.08;100.00
36062;BME280;22123;52.412;20.970;2024-03-02T11:52:13;100423.00;;;11.12;100.00
36062;BME280;22123;52.412;20.970;2024-03-02T11:54:41;100399.69;;;10.96;100.00
36062;BME280;22123;52.412;20.970;2024-03-02T11:57:07;100442.66;;;11.21;100.00
36062;BME280;22123;52.412;20.970;2024-03-02T11:59:33;100405.38;;;11.09;100.00
36062;BME280;22123;52.412;20.970;2024-03-02T12:02:00;100422.63;;;11.23;100.00
36062;BME280;22123;52.412;20.970;2024-03-02T12:04:26;100422.16;;;11.20;100.00
36062;BME280;22123;52.412;20.970;2024-03-02T12:06:59;100426.22;;;11.16;100.00
36062;BME280;22123;52.412;20.970;2024-03-02T12:09:27;100415.00;;;11.04;100.00
36062;BME280;22123;52.412;20.970;2024-03-02T12:12:07;100380.97;;;10.71;100.00
36062;BME280;22123;52.412;20.970;2024-03-02T12:14:34;100407.50;;;10.83;100.00
36062;BME280;22123;52.412;20.970;2024-03-02T12:17:00;100370.06;;;10.65;100.00
36062;BME280;22123;52.412;20.970;2024-03-02T12:19:27;100400.75;;;10.87;100.00
36062;BME280;22123;52.412;20.970;2024-03-02T12:21:53;100367.06;;;10.59;100.00
36062;BME280;22123;52.412;20.970;2024-03-02T12:24:20;100406.00;;;10.80;100.00
36062;BME280;22123;52.412;20.970;2024-03-02T12:26:46;100414.63;;;10.67;100.00
36062;BME280;22123;52.412;20.970;2024-03-02T12:29:12;100406.28;;;10.54;100.00
36062;BME280;22123;52.412;20.970;2024-03-02T12:31:39;100411.53;;;10.47;100.00
36062;BME280;22123;52.412;20.970;2024-03-02T12:34:05;100393.91;;;10.20;100.00
36062;BME280;22123;52.412;20.970;2024-03-02T12:36:36;100422.63;;;10.27;100.00